sensor_id;sensor_type;location;lat;lon;timestamp;temperature;humidity
2873;DHT22;1444;49.166;7.312;2022-08-26T00:02:15;19.10;83.00
2873;DHT22;1444;49.166;7.312;2022-08-26T00:04:42;19.00;83.10
2873;DHT22;1444;49.166;7.312;2022-08-26T00:07:10;19.10;82.60
2873;DHT22;1444;49.166;7.312;2022-08-26T00:09:37;19.10;82.40
2873;DHT22;1444;49.166;7.312;2022-08-26T00:12:04;19.10;82.00
2873;DHT22;1444;49.166;7.312;2022-08-26T00:14:31;19.10;81.60
2873;DHT22;1444;49.166;7.312;2022-08-26T00:16:58;19.10;82.10
2873;DHT22;1444;49.166;7.312;2022-08-26T00:19:25;19.00;82.50
2873;DHT22;1444;49.166;7.312;2022-08-26T00:21:52;19.00;82.50
2873;DHT22;1444;49.166;7.312;2022-08-26T00:24:21;19.00;82.20
2873;DHT22;1444;49.166;7.312;2022-08-26T00:26:48;19.00;82.70
2873;DHT22;1444;49.166;7.312;2022-08-26T00:29:15;18.90;83.00
2873;DHT22;1444;49.166;7.312;2022-08-26T00:31:42;18.90;82.20
2873;DHT22;1444;49.166;7.312;2022-08-26T00:34:09;19.00;81.60
2873;DHT22;1444;49.166;7.312;2022-08-26T00:36:36;19.00;81.70
2873;DHT22;1444;49.166;7.312;2022-08-26T00:39:04;19.00;82.10
2873;DHT22;1444;49.166;7.312;2022-08-26T00:41:34;18.90;82.20
2873;DHT22;1444;49.166;7.312;2022-08-26T00:44:01;18.80;82.40
2873;DHT22;1444;49.166;7.312;2022-08-26T00:46:32;18.60;83.30
2873;DHT22;1444;49.166;7.312;2022-08-26T00:49:04;18.60;83.90
2873;DHT22;1444;49.166;7.312;2022-08-26T00:51:41;18.50;83.80
2873;DHT22;1444;49.166;7.312;2022-08-26T00:54:08;18.40;84.00
2873;DHT22;1444;49.166;7.312;2022-08-26T00:56:42;18.40;83.70
2873;DHT22;1444;49.166;7.312;2022-08-26T00:59:12;18.40;83.90
2873;DHT22;1444;49.166;7.312;2022-08-26T01:01:41;18.40;83.90
2873;DHT22;1444;49.166;7.312;2022-08-26T01:04:08;18.40;83.50
2873;DHT22;1444;49.166;7.312;2022-08-26T01:06:35;18.40;83.60
2873;DHT22;1444;49.166;7.312;2022-08-26T01:09:02;18.50;83.40
2873;DHT22;1444;49.166;7.312;2022-08-26T01:11:30;18.40;83.60
2873;DHT22;1444;49.166;7.312;2022-08-26T01:13:59;18.40;83.70
2873;DHT22;1444;49.166;7.312;2022-08-26T01:16:28;18.30;83.90
2873;DHT22;1444;49.166;7.312;2022-08-26T01:19:00;18.20;84.40
2873;DHT22;1444;49.166;7.312;2022-08-26T01:21:31;18.20;84.40
2873;DHT22;1444;49.166;7.312;2022-08-26T01:24:03;18.10;85.80
2873;DHT22;1444;49.166;7.312;2022-08-26T01:26:33;17.80;87.10
2873;DHT22;1444;49.166;7.312;2022-08-26T01:29:03;17.80;86.60
2873;DHT22;1444;49.166;7.312;2022-08-26T01:31:34;17.80;86.40
2873;DHT22;1444;49.166;7.312;2022-08-26T01:34:05;17.80;87.00
2873;DHT22;1444;49.166;7.312;2022-08-26T01:36:36;17.80;87.50
2873;DHT22;1444;49.166;7.312;2022-08-26T01:39:05;17.80;86.50
2873;DHT22;1444;49.166;7.312;2022-08-26T01:41:33;17.80;86.40
2873;DHT22;1444;49.166;7.312;2022-08-26T01:44:02;17.80;86.30
2873;DHT22;1444;49.166;7.312;2022-08-26T01:46:30;17.80;86.10
2873;DHT22;1444;49.166;7.312;2022-08-26T01:49:00;17.80;86.00
2873;DHT22;1444;49.166;7.312;2022-08-26T01:51:29;17.80;85.50
2873;DHT22;1444;49.166;7.312;2022-08-26T01:54:00;17.80;86.20
2873;DHT22;1444;49.166;7.312;2022-08-26T01:56:28;17.80;85.90
2873;DHT22;1444;49.166;7.312;2022-08-26T01:58:57;17.80;85.90
2873;DHT22;1444;49.166;7.312;2022-08-26T02:01:26;17.80;85.70
2873;DHT22;1444;49.166;7.312;2022-08-26T02:03:58;17.80;86.30
2873;DHT22;1444;49.166;7.312;2022-08-26T02:06:26;17.80;87.00
2873;DHT22;1444;49.166;7.312;2022-08-26T02:08:55;17.80;87.20
2873;DHT22;1444;49.166;7.312;2022-08-26T02:11:22;17.90;86.80
2873;DHT22;1444;49.166;7.312;2022-08-26T02:13:52;17.90;86.40
2873;DHT22;1444;49.166;7.312;2022-08-26T02:16:24;17.90;86.60
2873;DHT22;1444;49.166;7.312;2022-08-26T02:18:53;17.80;86.50
2873;DHT22;1444;49.166;7.312;2022-08-26T02:21:21;17.70;86.80
2873;DHT22;1444;49.166;7.312;2022-08-26T02:23:48;17.60;86.70
2873;DHT22;1444;49.166;7.312;2022-08-26T02:26:18;17.60;87.20
2873;DHT22;1444;49.166;7.312;2022-08-26T02:28:51;17.50;88.30
2873;DHT22;1444;49.166;7.312;2022-08-26T02:31:18;17.50;88.20
2873;DHT22;1444;49.166;7.312;2022-08-26T02:33:45;17.50;87.40
2873;DHT22;1444;49.166;7.312;2022-08-26T02:36:18;17.50;87.40
2873;DHT22;1444;49.166;7.312;2022-08-26T02:38:44;17.70;87.20
2873;DHT22;1444;49.166;7.312;2022-08-26T02:41:11;17.70;86.20
2873;DHT22;1444;49.166;7.312;2022-08-26T02:43:38;17.70;86.20
2873;DHT22;1444;49.166;7.312;2022-08-26T02:46:06;17.70;86.00
2873;DHT22;1444;49.166;7.312;2022-08-26T02:48:32;17.70;85.90
2873;DHT22;1444;49.166;7.312;2022-08-26T02:51:00;17.70;85.90
2873;DHT22;1444;49.166;7.312;2022-08-26T02:53:26;17.70;85.80
2873;DHT22;1444;49.166;7.312;2022-08-26T02:55:54;17.40;87.90
2873;DHT22;1444;49.166;7.312;2022-08-26T02:58:20;17.20;89.60
2873;DHT22;1444;49.166;7.312;2022-08-26T03:00:48;17.00;90.20
2873;DHT22;1444;49.166;7.312;2022-08-26T03:03:16;16.90;90.30
2873;DHT22;1444;49.166;7.312;2022-08-26T03:05:42;16.90;90.20
2873;DHT22;1444;49.166;7.312;2022-08-26T03:08:09;16.90;90.00
2873;DHT22;1444;49.166;7.312;2022-08-26T03:10:36;16.90;89.20
2873;DHT22;1444;49.166;7.312;2022-08-26T03:13:03;17.00;89.70
2873;DHT22;1444;49.166;7.312;2022-08-26T03:15:30;17.10;89.20
2873;DHT22;1444;49.166;7.312;2022-08-26T03:17:57;17.00;89.60
2873;DHT22;1444;49.166;7.312;2022-08-26T03:20:25;17.00;89.90
2873;DHT22;1444;49.166;7.312;2022-08-26T03:22:52;17.00;90.00
2873;DHT22;1444;49.166;7.312;2022-08-26T03:25:20;17.00;90.20
2873;DHT22;1444;49.166;7.312;2022-08-26T03:27:47;17.00;90.20
2873;DHT22;1444;49.166;7.312;2022-08-26T03:30:14;17.00;90.30
2873;DHT22;1444;49.166;7.312;2022-08-26T03:32:59;17.00;89.50
2873;DHT22;1444;49.166;7.312;2022-08-26T03:35:27;17.00;89.20
2873;DHT22;1444;49.166;7.312;2022-08-26T03:37:54;17.00;90.00
2873;DHT22;1444;49.166;7.312;2022-08-26T03:40:21;17.10;90.00
2873;DHT22;1444;49.166;7.312;2022-08-26T03:42:48;17.10;90.00
2873;DHT22;1444;49.166;7.312;2022-08-26T03:45:17;17.20;89.20
2873;DHT22;1444;49.166;7.312;2022-08-26T03:47:45;17.20;89.70
2873;DHT22;1444;49.166;7.312;2022-08-26T03:50:15;17.20;89.60
2873;DHT22;1444;49.166;7.312;2022-08-26T03:52:43;17.10;89.00
2873;DHT22;1444;49.166;7.312;2022-08-26T03:55:11;17.00;89.60
2873;DHT22;1444;49.166;7.312;2022-08-26T03:57:38;16.90;90.40
2873;DHT22;1444;49.166;7.312;2022-08-26T04:00:09;16.80;90.40
2873;DHT22;1444;49.166;7.312;2022-08-26T04:02:37;16.80;90.70
2873;DHT22;1444;49.166;7.312;2022-08-26T04:05:05;16.90;90.50
2873;DHT22;1444;49.166;7.312;2022-08-26T04:07:31;16.90;90.50
2873;DHT22;1444;49.166;7.312;2022-08-26T04:09:59;16.90;90.40
2873;DHT22;1444;49.166;7.312;2022-08-26T04:12:26;16.90;90.20
2873;DHT22;1444;49.166;7.312;2022-08-26T04:14:53;16.90;90.10
2873;DHT22;1444;49.166;7.312;2022-08-26T04:17:20;16.90;89.40
2873;DHT22;1444;49.166;7.312;2022-08-26T04:19:50;16.90;90.00
2873;DHT22;1444;49.166;7.312;2022-08-26T04:22:16;16.80;90.00
2873;DHT22;1444;49.166;7.312;2022-08-26T04:24:44;16.80;90.10
2873;DHT22;1444;49.166;7.312;2022-08-26T04:27:12;16.60;91.00
2873;DHT22;1444;49.166;7.312;2022-08-26T04:29:39;16.60;90.90
2873;DHT22;1444;49.166;7.312;2022-08-26T04:32:06;16.60;90.80
2873;DHT22;1444;49.166;7.312;2022-08-26T04:34:33;16.60;90.50
2873;DHT22;1444;49.166;7.312;2022-08-26T04:37:00;16.50;91.10
2873;DHT22;1444;49.166;7.312;2022-08-26T04:39:27;16.40;91.40
2873;DHT22;1444;49.166;7.312;2022-08-26T04:41:54;16.40;91.90
2873;DHT22;1444;49.166;7.312;2022-08-26T04:44:22;16.40;91.50
2873;DHT22;1444;49.166;7.312;2022-08-26T04:46:50;16.40;91.40
2873;DHT22;1444;49.166;7.312;2022-08-26T04:49:18;16.40;91.20
2873;DHT22;1444;49.166;7.312;2022-08-26T04:51:46;16.30;91.50
2873;DHT22;1444;49.166;7.312;2022-08-26T04:54:14;16.20;91.60
2873;DHT22;1444;49.166;7.312;2022-08-26T04:56:42;16.30;91.40
2873;DHT22;1444;49.166;7.312;2022-08-26T04:59:11;16.30;91.30
2873;DHT22;1444;49.166;7.312;2022-08-26T05:01:42;16.30;91.30
2873;DHT22;1444;49.166;7.312;2022-08-26T05:04:09;16.30;91.70
2873;DHT22;1444;49.166;7.312;2022-08-26T05:06:36;16.20;92.50
2873;DHT22;1444;49.166;7.312;2022-08-26T05:11:31;16.40;91.60
2873;DHT22;1444;49.166;7.312;2022-08-26T05:13:58;16.40;91.40
2873;DHT22;1444;49.166;7.312;2022-08-26T05:16:25;16.40;91.50
2873;DHT22;1444;49.166;7.312;2022-08-26T05:18:53;16.50;91.40
2873;DHT22;1444;49.166;7.312;2022-08-26T05:21:21;16.60;91.20
2873;DHT22;1444;49.166;7.312;2022-08-26T05:23:49;16.60;91.30
2873;DHT22;1444;49.166;7.312;2022-08-26T05:26:17;16.70;91.40
2873;DHT22;1444;49.166;7.312;2022-08-26T05:28:44;16.80;91.40
2873;DHT22;1444;49.166;7.312;2022-08-26T05:31:13;17.00;91.10
2873;DHT22;1444;49.166;7.312;2022-08-26T05:33:40;17.10;91.00
2873;DHT22;1444;49.166;7.312;2022-08-26T05:36:11;17.20;91.20
2873;DHT22;1444;49.166;7.312;2022-08-26T05:38:38;17.30;91.00
2873;DHT22;1444;49.166;7.312;2022-08-26T05:41:13;17.30;91.10
2873;DHT22;1444;49.166;7.312;2022-08-26T05:43:39;17.40;91.20
2873;DHT22;1444;49.166;7.312;2022-08-26T05:46:06;17.50;90.90
2873;DHT22;1444;49.166;7.312;2022-08-26T05:48:33;17.50;90.80
2873;DHT22;1444;49.166;7.312;2022-08-26T05:51:02;17.60;90.50
2873;DHT22;1444;49.166;7.312;2022-08-26T05:53:31;17.80;90.90
2873;DHT22;1444;49.166;7.312;2022-08-26T05:55:58;17.70;91.20
2873;DHT22;1444;49.166;7.312;2022-08-26T05:58:25;17.70;91.40
2873;DHT22;1444;49.166;7.312;2022-08-26T06:00:57;17.80;91.50
2873;DHT22;1444;49.166;7.312;2022-08-26T06:03:25;17.90;91.60
2873;DHT22;1444;49.166;7.312;2022-08-26T06:05:51;18.00;91.90
2873;DHT22;1444;49.166;7.312;2022-08-26T06:08:18;18.00;92.10
2873;DHT22;1444;49.166;7.312;2022-08-26T06:10:48;18.00;92.50
2873;DHT22;1444;49.166;7.312;2022-08-26T06:13:16;18.20;92.60
2873;DHT22;1444;49.166;7.312;2022-08-26T06:15:45;18.30;92.20
2873;DHT22;1444;49.166;7.312;2022-08-26T06:18:14;18.50;91.90
2873;DHT22;1444;49.166;7.312;2022-08-26T06:20:42;18.80;91.90
2873;DHT22;1444;49.166;7.312;2022-08-26T06:23:10;18.90;91.90
2873;DHT22;1444;49.166;7.312;2022-08-26T06:25:56;19.00;92.10
2873;DHT22;1444;49.166;7.312;2022-08-26T06:28:23;19.10;92.60
2873;DHT22;1444;49.166;7.312;2022-08-26T06:30:50;19.20;92.40
2873;DHT22;1444;49.166;7.312;2022-08-26T06:33:18;19.70;92.20
2873;DHT22;1444;49.166;7.312;2022-08-26T06:35:45;20.20;91.90
2873;DHT22;1444;49.166;7.312;2022-08-26T06:38:12;20.70;91.20
2873;DHT22;1444;49.166;7.312;2022-08-26T06:40:41;21.30;90.20
2873;DHT22;1444;49.166;7.312;2022-08-26T06:43:09;21.30;90.30
2873;DHT22;1444;49.166;7.312;2022-08-26T06:45:36;21.90;90.30
2873;DHT22;1444;49.166;7.312;2022-08-26T06:48:04;22.70;89.70
2873;DHT22;1444;49.166;7.312;2022-08-26T06:50:31;23.00;87.40
2873;DHT22;1444;49.166;7.312;2022-08-26T06:52:57;23.10;87.20
2873;DHT22;1444;49.166;7.312;2022-08-26T06:55:24;23.80;85.90
2873;DHT22;1444;49.166;7.312;2022-08-26T06:57:51;24.10;83.60
2873;DHT22;1444;49.166;7.312;2022-08-26T07:00:19;24.50;82.90
2873;DHT22;1444;49.166;7.312;2022-08-26T07:02:46;24.60;82.60
2873;DHT22;1444;49.166;7.312;2022-08-26T07:05:13;25.50;80.90
2873;DHT22;1444;49.166;7.312;2022-08-26T07:07:40;25.60;80.80
2873;DHT22;1444;49.166;7.312;2022-08-26T07:10:07;26.40;79.50
2873;DHT22;1444;49.166;7.312;2022-08-26T07:12:34;27.00;76.80
2873;DHT22;1444;49.166;7.312;2022-08-26T07:15:01;27.10;76.40
2873;DHT22;1444;49.166;7.312;2022-08-26T07:17:30;27.60;73.70
2873;DHT22;1444;49.166;7.312;2022-08-26T07:19:56;27.80;72.20
2873;DHT22;1444;49.166;7.312;2022-08-26T07:22:23;27.90;73.00
2873;DHT22;1444;49.166;7.312;2022-08-26T07:24:50;28.20;71.80
2873;DHT22;1444;49.166;7.312;2022-08-26T07:27:16;28.30;72.40
2873;DHT22;1444;49.166;7.312;2022-08-26T07:29:43;28.40;72.60
2873;DHT22;1444;49.166;7.312;2022-08-26T07:32:12;28.60;70.40
2873;DHT22;1444;49.166;7.312;2022-08-26T07:34:40;28.60;71.20
2873;DHT22;1444;49.166;7.312;2022-08-26T07:37:07;28.50;69.80
2873;DHT22;1444;49.166;7.312;2022-08-26T07:39:34;28.40;69.50
2873;DHT22;1444;49.166;7.312;2022-08-26T07:42:02;28.40;69.80
2873;DHT22;1444;49.166;7.312;2022-08-26T07:44:29;28.30;69.50
2873;DHT22;1444;49.166;7.312;2022-08-26T07:46:56;28.10;70.70
2873;DHT22;1444;49.166;7.312;2022-08-26T07:49:23;28.20;70.00
2873;DHT22;1444;49.166;7.312;2022-08-26T07:51:53;28.10;69.40
2873;DHT22;1444;49.166;7.312;2022-08-26T07:54:20;28.30;68.70
2873;DHT22;1444;49.166;7.312;2022-08-26T07:56:47;28.60;70.40
2873;DHT22;1444;49.166;7.312;2022-08-26T07:59:14;29.00;69.40
2873;DHT22;1444;49.166;7.312;2022-08-26T08:01:42;29.10;68.10
2873;DHT22;1444;49.166;7.312;2022-08-26T08:04:09;29.10;66.80
2873;DHT22;1444;49.166;7.312;2022-08-26T08:06:36;29.10;68.70
2873;DHT22;1444;49.166;7.312;2022-08-26T08:09:05;29.20;67.60
2873;DHT22;1444;49.166;7.312;2022-08-26T08:11:31;29.40;67.20
2873;DHT22;1444;49.166;7.312;2022-08-26T08:13:58;29.60;67.40
2873;DHT22;1444;49.166;7.312;2022-08-26T08:16:27;30.00;66.10
2873;DHT22;1444;49.166;7.312;2022-08-26T08:18:54;30.10;66.80
2873;DHT22;1444;49.166;7.312;2022-08-26T08:21:22;30.60;64.80
2873;DHT22;1444;49.166;7.312;2022-08-26T08:23:49;30.90;64.80
2873;DHT22;1444;49.166;7.312;2022-08-26T08:26:17;31.30;63.80
2873;DHT22;1444;49.166;7.312;2022-08-26T08:28:44;31.50;62.70
2873;DHT22;1444;49.166;7.312;2022-08-26T08:31:17;31.50;63.00
2873;DHT22;1444;49.166;7.312;2022-08-26T08:33:44;31.60;63.40
2873;DHT22;1444;49.166;7.312;2022-08-26T08:36:11;31.40;62.70
2873;DHT22;1444;49.166;7.312;2022-08-26T08:38:39;31.40;63.60
2873;DHT22;1444;49.166;7.312;2022-08-26T08:41:25;31.60;63.20
2873;DHT22;1444;49.166;7.312;2022-08-26T08:43:57;32.10;61.20
2873;DHT22;1444;49.166;7.312;2022-08-26T08:46:25;31.80;60.80
2873;DHT22;1444;49.166;7.312;2022-08-26T08:48:55;31.60;61.90
2873;DHT22;1444;49.166;7.312;2022-08-26T08:51:31;31.80;62.50
2873;DHT22;1444;49.166;7.312;2022-08-26T08:53:59;32.10;60.70
2873;DHT22;1444;49.166;7.312;2022-08-26T08:56:31;32.40;60.60
2873;DHT22;1444;49.166;7.312;2022-08-26T08:59:06;32.70;60.10
2873;DHT22;1444;49.166;7.312;2022-08-26T09:01:44;33.00;59.70
2873;DHT22;1444;49.166;7.312;2022-08-26T09:04:22;33.30;59.90
2873;DHT22;1444;49.166;7.312;2022-08-26T09:06:57;33.30;58.10
2873;DHT22;1444;49.166;7.312;2022-08-26T09:09:29;33.10;58.10
2873;DHT22;1444;49.166;7.312;2022-08-26T09:12:00;32.70;57.70
2873;DHT22;1444;49.166;7.312;2022-08-26T09:14:27;32.80;59.60
2873;DHT22;1444;49.166;7.312;2022-08-26T09:17:00;32.90;58.90
2873;DHT22;1444;49.166;7.312;2022-08-26T09:19:32;33.00;58.50
2873;DHT22;1444;49.166;7.312;2022-08-26T09:22:03;33.10;59.60
2873;DHT22;1444;49.166;7.312;2022-08-26T09:24:30;33.10;57.80
2873;DHT22;1444;49.166;7.312;2022-08-26T09:27:00;33.10;58.50
2873;DHT22;1444;49.166;7.312;2022-08-26T09:29:28;33.30;58.70
2873;DHT22;1444;49.166;7.312;2022-08-26T09:32:15;33.20;58.30
2873;DHT22;1444;49.166;7.312;2022-08-26T09:34:55;33.30;58.20
2873;DHT22;1444;49.166;7.312;2022-08-26T09:37:38;33.30;57.60
2873;DHT22;1444;49.166;7.312;2022-08-26T09:40:17;33.00;58.30
2873;DHT22;1444;49.166;7.312;2022-08-26T09:42:45;33.10;58.90
2873;DHT22;1444;49.166;7.312;2022-08-26T09:45:12;32.90;57.30
2873;DHT22;1444;49.166;7.312;2022-08-26T09:47:51;32.70;57.50
2873;DHT22;1444;49.166;7.312;2022-08-26T09:50:24;32.70;57.60
2873;DHT22;1444;49.166;7.312;2022-08-26T09:53:04;32.50;57.70
2873;DHT22;1444;49.166;7.312;2022-08-26T09:55:31;32.70;58.20
2873;DHT22;1444;49.166;7.312;2022-08-26T09:57:59;32.70;58.70
2873;DHT22;1444;49.166;7.312;2022-08-26T10:00:30;32.90;57.00
2873;DHT22;1444;49.166;7.312;2022-08-26T10:02:59;33.00;58.40
2873;DHT22;1444;49.166;7.312;2022-08-26T10:05:29;33.50;57.10
2873;DHT22;1444;49.166;7.312;2022-08-26T10:07:58;33.80;57.60
2873;DHT22;1444;49.166;7.312;2022-08-26T10:10:29;34.20;56.60
2873;DHT22;1444;49.166;7.312;2022-08-26T10:13:03;34.30;57.20
2873;DHT22;1444;49.166;7.312;2022-08-26T10:15:40;34.80;56.60
2873;DHT22;1444;49.166;7.312;2022-08-26T10:18:10;34.90;55.50
2873;DHT22;1444;49.166;7.312;2022-08-26T10:20:47;35.00;55.40
2873;DHT22;1444;49.166;7.312;2022-08-26T10:23:17;35.10;54.30
2873;DHT22;1444;49.166;7.312;2022-08-26T10:25:47;35.40;54.80
2873;DHT22;1444;49.166;7.312;2022-08-26T10:28:24;35.60;54.90
2873;DHT22;1444;49.166;7.312;2022-08-26T10:30:57;35.70;52.10
2873;DHT22;1444;49.166;7.312;2022-08-26T10:33:26;35.80;53.70
2873;DHT22;1444;49.166;7.312;2022-08-26T10:35:55;35.80;53.80
2873;DHT22;1444;49.166;7.312;2022-08-26T10:38:26;35.90;52.30
2873;DHT22;1444;49.166;7.312;2022-08-26T10:40:58;35.70;52.10
2873;DHT22;1444;49.166;7.312;2022-08-26T10:43:30;35.70;52.50
2873;DHT22;1444;49.166;7.312;2022-08-26T10:46:02;35.60;51.30
2873;DHT22;1444;49.166;7.312;2022-08-26T10:48:34;35.50;51.60
2873;DHT22;1444;49.166;7.312;2022-08-26T10:51:03;35.10;52.10
2873;DHT22;1444;49.166;7.312;2022-08-26T10:53:37;34.80;53.10
2873;DHT22;1444;49.166;7.312;2022-08-26T10:56:24;34.80;52.90
2873;DHT22;1444;49.166;7.312;2022-08-26T10:58:59;34.60;52.40
2873;DHT22;1444;49.166;7.312;2022-08-26T11:01:31;34.60;55.10
2873;DHT22;1444;49.166;7.312;2022-08-26T11:04:20;34.60;54.20
2873;DHT22;1444;49.166;7.312;2022-08-26T11:07:31;34.30;55.30
2873;DHT22;1444;49.166;7.312;2022-08-26T11:09:58;34.30;55.30
2873;DHT22;1444;49.166;7.312;2022-08-26T11:12:55;34.20;55.10
2873;DHT22;1444;49.166;7.312;2022-08-26T11:18:39;34.20;55.40
2873;DHT22;1444;49.166;7.312;2022-08-26T11:30:44;33.80;55.90
2873;DHT22;1444;49.166;7.312;2022-08-26T11:36:41;33.60;57.20
2873;DHT22;1444;49.166;7.312;2022-08-26T11:39:16;33.40;57.10
2873;DHT22;1444;49.166;7.312;2022-08-26T11:41:46;33.40;57.60
2873;DHT22;1444;49.166;7.312;2022-08-26T11:44:16;33.50;57.00
2873;DHT22;1444;49.166;7.312;2022-08-26T11:46:52;33.70;57.10
2873;DHT22;1444;49.166;7.312;2022-08-26T11:49:19;33.80;56.80
2873;DHT22;1444;49.166;7.312;2022-08-26T11:51:47;34.10;56.70
2873;DHT22;1444;49.166;7.312;2022-08-26T11:54:15;34.20;56.90
2873;DHT22;1444;49.166;7.312;2022-08-26T11:56:44;34.10;55.70
2873;DHT22;1444;49.166;7.312;2022-08-26T11:59:16;34.10;56.70
2873;DHT22;1444;49.166;7.312;2022-08-26T12:01:46;34.10;57.00
2873;DHT22;1444;49.166;7.312;2022-08-26T12:04:25;34.00;56.90
2873;DHT22;1444;49.166;7.312;2022-08-26T12:06:54;34.10;57.40
2873;DHT22;1444;49.166;7.312;2022-08-26T12:09:24;34.30;57.20
2873;DHT22;1444;49.166;7.312;2022-08-26T12:11:52;34.40;56.50
2873;DHT22;1444;49.166;7.312;2022-08-26T12:14:22;34.60;55.90
2873;DHT22;1444;49.166;7.312;2022-08-26T12:16:50;34.40;55.70
2873;DHT22;1444;49.166;7.312;2022-08-26T12:19:24;34.40;55.80
2873;DHT22;1444;49.166;7.312;2022-08-26T12:21:59;34.30;55.40
2873;DHT22;1444;49.166;7.312;2022-08-26T12:24:27;34.30;56.60
2873;DHT22;1444;49.166;7.312;2022-08-26T12:27:08;34.30;56.40
2873;DHT22;1444;49.166;7.312;2022-08-26T12:29:36;34.40;55.60
2873;DHT22;1444;49.166;7.312;2022-08-26T12:32:08;34.30;55.70
2873;DHT22;1444;49.166;7.312;2022-08-26T12:34:38;34.10;55.50
2873;DHT22;1444;49.166;7.312;2022-08-26T12:37:09;33.90;56.30
2873;DHT22;1444;49.166;7.312;2022-08-26T12:39:39;33.90;56.30
2873;DHT22;1444;49.166;7.312;2022-08-26T12:42:21;33.90;56.90
2873;DHT22;1444;49.166;7.312;2022-08-26T12:44:56;34.00;56.40
2873;DHT22;1444;49.166;7.312;2022-08-26T12:47:27;33.90;57.00
2873;DHT22;1444;49.166;7.312;2022-08-26T12:50:03;33.90;56.40
2873;DHT22;1444;49.166;7.312;2022-08-26T12:52:37;33.90;56.90
2873;DHT22;1444;49.166;7.312;2022-08-26T12:55:18;33.90;56.90
2873;DHT22;1444;49.166;7.312;2022-08-26T12:57:45;33.70;57.10
2873;DHT22;1444;49.166;7.312;2022-08-26T13:00:23;33.90;57.60
2873;DHT22;1444;49.166;7.312;2022-08-26T13:02:52;33.90;57.10
2873;DHT22;1444;49.166;7.312;2022-08-26T13:05:21;33.90;57.40
2873;DHT22;1444;49.166;7.312;2022-08-26T13:08:08;33.60;56.50
2873;DHT22;1444;49.166;7.312;2022-08-26T13:10:36;33.30;57.50
2873;DHT22;1444;49.166;7.312;2022-08-26T13:13:03;33.30;57.90
2873;DHT22;1444;49.166;7.312;2022-08-26T13:15:30;33.10;57.30
2873;DHT22;1444;49.166;7.312;2022-08-26T13:17:57;33.00;57.80
2873;DHT22;1444;49.166;7.312;2022-08-26T13:20:23;32.80;58.20
2873;DHT22;1444;49.166;7.312;2022-08-26T13:22:51;32.50;58.20
2873;DHT22;1444;49.166;7.312;2022-08-26T13:25:19;32.50;58.40
2873;DHT22;1444;49.166;7.312;2022-08-26T13:27:46;32.30;59.20
2873;DHT22;1444;49.166;7.312;2022-08-26T13:30:13;32.40;60.30
2873;DHT22;1444;49.166;7.312;2022-08-26T13:32:40;32.60;61.00
2873;DHT22;1444;49.166;7.312;2022-08-26T13:35:07;32.50;61.20
2873;DHT22;1444;49.166;7.312;2022-08-26T13:37:34;32.70;60.30
2873;DHT22;1444;49.166;7.312;2022-08-26T13:40:01;33.00;59.80
2873;DHT22;1444;49.166;7.312;2022-08-26T13:42:33;33.10;59.20
2873;DHT22;1444;49.166;7.312;2022-08-26T13:45:00;33.20;60.00
2873;DHT22;1444;49.166;7.312;2022-08-26T13:47:27;33.20;60.40
2873;DHT22;1444;49.166;7.312;2022-08-26T13:49:54;33.00;59.40
2873;DHT22;1444;49.166;7.312;2022-08-26T13:52:21;32.90;59.90
2873;DHT22;1444;49.166;7.312;2022-08-26T13:54:48;33.00;60.10
2873;DHT22;1444;49.166;7.312;2022-08-26T13:57:14;33.10;60.20
2873;DHT22;1444;49.166;7.312;2022-08-26T13:59:42;32.90;59.70
2873;DHT22;1444;49.166;7.312;2022-08-26T14:02:10;32.60;60.50
2873;DHT22;1444;49.166;7.312;2022-08-26T14:04:37;32.60;60.90
2873;DHT22;1444;49.166;7.312;2022-08-26T14:07:04;32.60;61.50
2873;DHT22;1444;49.166;7.312;2022-08-26T14:09:30;32.50;61.00
2873;DHT22;1444;49.166;7.312;2022-08-26T14:11:57;32.30;60.60
2873;DHT22;1444;49.166;7.312;2022-08-26T14:14:24;32.40;60.60
2873;DHT22;1444;49.166;7.312;2022-08-26T14:16:53;32.60;60.60
2873;DHT22;1444;49.166;7.312;2022-08-26T14:19:19;32.60;60.70
2873;DHT22;1444;49.166;7.312;2022-08-26T14:21:46;32.90;59.90
2873;DHT22;1444;49.166;7.312;2022-08-26T14:24:13;33.10;60.00
2873;DHT22;1444;49.166;7.312;2022-08-26T14:26:40;33.10;61.00
2873;DHT22;1444;49.166;7.312;2022-08-26T14:29:07;33.20;60.90
2873;DHT22;1444;49.166;7.312;2022-08-26T14:31:34;33.30;60.00
2873;DHT22;1444;49.166;7.312;2022-08-26T14:34:05;33.20;59.50
2873;DHT22;1444;49.166;7.312;2022-08-26T14:36:32;33.00;60.00
2873;DHT22;1444;49.166;7.312;2022-08-26T14:39:02;32.70;60.50
2873;DHT22;1444;49.166;7.312;2022-08-26T14:41:30;32.80;59.60
2873;DHT22;1444;49.166;7.312;2022-08-26T14:44:00;32.80;59.60
2873;DHT22;1444;49.166;7.312;2022-08-26T14:46:28;33.00;59.70
2873;DHT22;1444;49.166;7.312;2022-08-26T14:48:55;33.20;60.10
2873;DHT22;1444;49.166;7.312;2022-08-26T14:51:24;33.30;59.40
2873;DHT22;1444;49.166;7.312;2022-08-26T14:53:51;33.50;58.50
2873;DHT22;1444;49.166;7.312;2022-08-26T14:56:37;33.50;58.70
2873;DHT22;1444;49.166;7.312;2022-08-26T14:59:04;33.80;59.00
2873;DHT22;1444;49.166;7.312;2022-08-26T15:01:31;33.90;58.20
2873;DHT22;1444;49.166;7.312;2022-08-26T15:03:59;33.90;58.60
2873;DHT22;1444;49.166;7.312;2022-08-26T15:06:28;33.90;58.80
2873;DHT22;1444;49.166;7.312;2022-08-26T15:08:56;33.70;58.50
2873;DHT22;1444;49.166;7.312;2022-08-26T15:11:23;33.60;58.90
2873;DHT22;1444;49.166;7.312;2022-08-26T15:16:17;33.20;59.40
2873;DHT22;1444;49.166;7.312;2022-08-26T15:18:44;33.10;60.00
2873;DHT22;1444;49.166;7.312;2022-08-26T15:21:11;32.50;60.00
2873;DHT22;1444;49.166;7.312;2022-08-26T15:23:39;32.10;60.90
2873;DHT22;1444;49.166;7.312;2022-08-26T15:26:07;32.10;61.60
2873;DHT22;1444;49.166;7.312;2022-08-26T15:28:35;31.80;62.20
2873;DHT22;1444;49.166;7.312;2022-08-26T15:31:01;31.60;62.30
2873;DHT22;1444;49.166;7.312;2022-08-26T15:33:28;31.40;61.50
2873;DHT22;1444;49.166;7.312;2022-08-26T15:35:57;30.30;61.70
2873;DHT22;1444;49.166;7.312;2022-08-26T15:38:26;30.30;62.40
2873;DHT22;1444;49.166;7.312;2022-08-26T15:40:55;29.60;64.30
2873;DHT22;1444;49.166;7.312;2022-08-26T15:43:21;28.60;66.70
2873;DHT22;1444;49.166;7.312;2022-08-26T15:45:51;28.20;67.60
2873;DHT22;1444;49.166;7.312;2022-08-26T15:48:18;28.20;68.40
2873;DHT22;1444;49.166;7.312;2022-08-26T15:50:49;27.70;64.30
2873;DHT22;1444;49.166;7.312;2022-08-26T15:53:16;27.60;68.20
2873;DHT22;1444;49.166;7.312;2022-08-26T15:55:43;27.50;68.50
2873;DHT22;1444;49.166;7.312;2022-08-26T19:00:49;25.10;84.30
2873;DHT22;1444;49.166;7.312;2022-08-26T19:03:16;25.10;84.50
2873;DHT22;1444;49.166;7.312;2022-08-26T19:05:43;25.00;84.80
2873;DHT22;1444;49.166;7.312;2022-08-26T19:08:10;25.00;85.10
2873;DHT22;1444;49.166;7.312;2022-08-26T19:10:37;25.00;85.10
2873;DHT22;1444;49.166;7.312;2022-08-26T19:13:05;25.00;85.70
2873;DHT22;1444;49.166;7.312;2022-08-26T19:15:32;25.10;85.10
2873;DHT22;1444;49.166;7.312;2022-08-26T19:18:04;25.10;85.00
2873;DHT22;1444;49.166;7.312;2022-08-26T19:20:30;25.10;84.80
2873;DHT22;1444;49.166;7.312;2022-08-26T19:22:57;25.20;84.70
2873;DHT22;1444;49.166;7.312;2022-08-26T19:25:24;25.20;84.70
2873;DHT22;1444;49.166;7.312;2022-08-26T19:27:50;25.20;84.80
2873;DHT22;1444;49.166;7.312;2022-08-26T19:30:17;25.20;85.00
2873;DHT22;1444;49.166;7.312;2022-08-26T19:32:44;25.30;84.80
2873;DHT22;1444;49.166;7.312;2022-08-26T19:35:12;25.30;85.40
2873;DHT22;1444;49.166;7.312;2022-08-26T19:37:39;25.20;85.20
2873;DHT22;1444;49.166;7.312;2022-08-26T19:40:07;25.20;85.70